createdAt,value
2022-09-23T00:02:12.166Z,101457.38
2022-09-23T00:04:41.547Z,101453.03
2022-09-23T00:07:08.894Z,101451.41
2022-09-23T00:09:35.657Z,101445.22
2022-09-23T00:12:06.887Z,101447.31
2022-09-23T00:14:37.234Z,101443.94
2022-09-23T00:17:04.157Z,101444.75
2022-09-23T00:19:31.182Z,101439.00
2022-09-23T00:21:59.361Z,101441.00
2022-09-23T00:24:26.161Z,101438.44
2022-09-23T00:26:52.948Z,101426.38
2022-09-23T00:29:19.785Z,101433.97
2022-09-23T00:31:46.529Z,101441.59
2022-09-23T00:34:13.501Z,101430.81
2022-09-23T00:36:42.562Z,101426.13
2022-09-23T00:39:10.790Z,101423.56
2022-09-23T00:41:37.559Z,101424.28
2022-09-23T00:44:37.658Z,101423.69
2022-09-23T00:47:04.882Z,101420.06
2022-09-23T00:49:31.690Z,101420.66
2022-09-23T00:52:06.504Z,101425.56
2022-09-23T00:54:35.093Z,101428.03
2022-09-23T00:57:03.924Z,101423.75
2022-09-23T00:59:30.901Z,101427.59
2022-09-23T01:01:59.615Z,101421.75
2022-09-23T01:04:28.674Z,101428.41
2022-09-23T01:06:55.460Z,101412.94
2022-09-23T01:09:23.758Z,101405.44
2022-09-23T01:12:01.572Z,101401.91
2022-09-23T01:14:40.539Z,101405.91
2022-09-23T01:17:11.366Z,101409.09
2022-09-23T01:20:03.476Z,101412.16
2022-09-23T01:22:39.510Z,101401.00
2022-09-23T01:25:28.151Z,101405.72
2022-09-23T01:28:17.884Z,101408.88
2022-09-23T01:30:51.985Z,101402.63
2022-09-23T01:33:25.014Z,101397.13
2022-09-23T01:36:15.589Z,101398.44
2022-09-23T01:38:51.220Z,101392.84
2022-09-23T01:41:36.721Z,101392.25
2022-09-23T01:44:08.834Z,101391.44
2022-09-23T01:46:44.385Z,101387.47
2022-09-23T01:49:17.416Z,101378.06
2022-09-23T01:51:48.114Z,101384.03
2022-09-23T01:54:19.919Z,101387.19
2022-09-23T01:56:52.452Z,101386.22
2022-09-23T01:59:26.377Z,101389.28
2022-09-23T02:01:57.708Z,101384.63
2022-09-23T02:04:33.361Z,101384.38
2022-09-23T02:07:05.272Z,101380.25
2022-09-23T02:09:36.213Z,101386.22
2022-09-23T02:12:08.493Z,101385.69
2022-09-23T02:14:41.469Z,101385.44
2022-09-23T02:17:15.812Z,101380.53
2022-09-23T02:19:47.927Z,101372.97
2022-09-23T02:22:19.420Z,101373.81
2022-09-23T02:24:46.234Z,101367.47
2022-09-23T02:27:21.751Z,101367.47
2022-09-23T02:29:57.070Z,101365.72
2022-09-23T02:32:33.661Z,101364.59
2022-09-23T02:35:10.164Z,101364.81
2022-09-23T02:37:43.788Z,101359.06
2022-09-23T02:40:16.968Z,101363.38
2022-09-23T02:42:52.871Z,101356.94
2022-09-23T02:45:19.982Z,101354.72
2022-09-23T02:47:54.965Z,101359.75
2022-09-23T02:50:22.360Z,101358.19
2022-09-23T02:52:49.669Z,101364.66
2022-09-23T02:55:18.541Z,101355.59
2022-09-23T02:57:46.108Z,101357.69
2022-09-23T03:00:14.199Z,101350.13
2022-09-23T03:03:04.121Z,101343.78
2022-09-23T03:05:38.151Z,101344.69
2022-09-23T03:08:10.256Z,101343.59
2022-09-23T03:10:46.501Z,101345.88
2022-09-23T03:13:19.212Z,101340.34
2022-09-23T03:15:52.404Z,101334.25
2022-09-23T03:18:26.095Z,101336.69
2022-09-23T03:20:57.861Z,101334.81
2022-09-23T03:23:31.622Z,101333.69
2022-09-23T03:26:01.869Z,101329.34
2022-09-23T03:28:29.369Z,101322.34
2022-09-23T03:31:00.358Z,101321.34
2022-09-23T03:33:29.071Z,101324.25
2022-09-23T03:36:19.314Z,101317.00
2022-09-23T03:38:51.159Z,101324.72
2022-09-23T03:41:25.050Z,101319.53
2022-09-23T03:43:53.402Z,101324.81
2022-09-23T03:46:20.226Z,101326.63
2022-09-23T03:48:49.281Z,101322.94
2022-09-23T03:51:22.430Z,101320.28
2022-09-23T03:53:49.394Z,101323.84
2022-09-23T03:56:16.870Z,101326.56
2022-09-23T03:58:45.459Z,101328.44
2022-09-23T04:01:14.769Z,101319.09
2022-09-23T04:03:41.861Z,101334.91
2022-09-23T04:06:10.069Z,101327.88
2022-09-23T04:08:36.812Z,101336.63
2022-09-23T04:11:04.807Z,101325.16
2022-09-23T04:13:32.058Z,101332.81
2022-09-23T04:15:59.019Z,101333.88
2022-09-23T04:18:25.896Z,101334.97
2022-09-23T04:20:57.676Z,101331.59
2022-09-23T04:23:26.100Z,101319.19
2022-09-23T04:25:53.560Z,101335.34
2022-09-23T04:28:20.486Z,101324.00
2022-09-23T04:30:48.850Z,101335.69
2022-09-23T04:33:16.260Z,101326.63
2022-09-23T04:35:43.556Z,101330.44
2022-09-23T04:38:12.491Z,101313.72
2022-09-23T04:40:40.919Z,101316.97
2022-09-23T04:43:11.664Z,101317.06
2022-09-23T04:45:40.205Z,101318.28
2022-09-23T04:48:09.586Z,101322.72
2022-09-23T04:50:37.747Z,101316.34
2022-09-23T04:53:05.034Z,101313.22
2022-09-23T04:55:31.912Z,101307.91
2022-09-23T04:58:00.056Z,101306.03
2022-09-23T05:00:28.739Z,101313.44
2022-09-23T05:02:55.694Z,101293.72
2022-09-23T05:05:24.221Z,101303.72
2022-09-23T05:07:51.750Z,101304.44
2022-09-23T05:10:18.674Z,101307.72
2022-09-23T05:12:45.483Z,101309.34
2022-09-23T05:15:15.184Z,101310.16
2022-09-23T05:17:42.884Z,101311.66
2022-09-23T05:20:11.192Z,101312.91
2022-09-23T05:22:38.052Z,101309.38
2022-09-23T05:25:05.537Z,101313.09
2022-09-23T05:27:32.392Z,101309.56
2022-09-23T05:30:01.077Z,101308.00
2022-09-23T05:32:29.228Z,101310.44
2022-09-23T05:34:55.983Z,101315.66
2022-09-23T05:37:23.350Z,101308.34
2022-09-23T05:39:50.300Z,101316.47
2022-09-23T05:42:21.207Z,101308.63
2022-09-23T05:44:48.023Z,101304.84
2022-09-23T05:47:14.847Z,101300.19
2022-09-23T05:49:59.159Z,101296.13
2022-09-23T05:52:27.145Z,101302.66
2022-09-23T05:54:53.901Z,101307.91
2022-09-23T05:57:21.506Z,101307.66
2022-09-23T05:59:48.439Z,101312.28
2022-09-23T06:02:15.418Z,101300.44
2022-09-23T06:04:43.988Z,101296.06
2022-09-23T06:07:11.358Z,101306.81
2022-09-23T06:09:38.126Z,101305.81
2022-09-23T06:12:06.415Z,101297.06
2022-09-23T06:14:33.403Z,101307.22
2022-09-23T06:17:00.261Z,101303.00
2022-09-23T06:19:26.995Z,101309.50
2022-09-23T06:21:55.152Z,101308.38
2022-09-23T06:24:24.926Z,101308.53
2022-09-23T06:26:55.886Z,101299.88
2022-09-23T06:29:22.653Z,101301.34
2022-09-23T06:31:49.557Z,101305.16
2022-09-23T06:34:16.654Z,101309.31
2022-09-23T06:36:45.817Z,101303.59
2022-09-23T06:39:15.391Z,101303.16
2022-09-23T06:41:42.376Z,101295.94
2022-09-23T06:44:09.317Z,101299.50
2022-09-23T06:46:37.010Z,101297.88
2022-09-23T06:49:03.943Z,101308.00
2022-09-23T06:51:30.739Z,101309.16
2022-09-23T06:53:57.521Z,101306.66
2022-09-23T06:56:25.612Z,101294.19
2022-09-23T06:58:53.133Z,101291.97
2022-09-23T07:01:20.133Z,101295.06
2022-09-23T07:03:48.385Z,101299.13
2022-09-23T07:06:16.137Z,101290.75
2022-09-23T07:08:44.688Z,101290.09
2022-09-23T07:11:13.487Z,101288.22
2022-09-23T07:13:42.696Z,101290.19
2022-09-23T07:16:11.384Z,101295.13
2022-09-23T07:18:38.948Z,101291.41
2022-09-23T07:21:07.720Z,101292.72
2022-09-23T07:23:34.853Z,101290.94
2022-09-23T07:26:01.725Z,101303.41
2022-09-23T07:28:29.144Z,101299.72
2022-09-23T07:31:00.586Z,101302.28
2022-09-23T07:33:33.075Z,101300.56
2022-09-23T07:36:04.569Z,101298.00
2022-09-23T07:38:31.447Z,101305.75
2022-09-23T07:41:03.941Z,101299.19
2022-09-23T07:43:33.808Z,101294.94
2022-09-23T07:46:04.601Z,101300.03
2022-09-23T07:48:34.294Z,101301.97
2022-09-23T07:51:06.934Z,101302.25
2022-09-23T07:53:33.787Z,101304.75
2022-09-23T07:56:00.727Z,101307.44
2022-09-23T07:58:27.502Z,101305.72
2022-09-23T08:00:54.350Z,101305.44
2022-09-23T08:03:22.807Z,101316.16
2022-09-23T08:05:50.727Z,101310.66
2022-09-23T08:08:17.510Z,101308.84
2022-09-23T08:10:44.513Z,101319.88
2022-09-23T08:13:11.369Z,101323.19
2022-09-23T08:15:38.591Z,101321.66
2022-09-23T08:18:05.621Z,101322.63
2022-09-23T08:20:47.445Z,101328.66
2022-09-23T08:23:16.741Z,101327.19
2022-09-23T08:25:46.908Z,101330.94
2022-09-23T08:28:16.307Z,101329.56
2022-09-23T08:30:44.349Z,101331.06
2022-09-23T08:33:11.905Z,101333.28
2022-09-23T08:35:40.224Z,101329.69
2022-09-23T08:38:07.960Z,101331.81
2022-09-23T08:40:36.979Z,101338.53
2022-09-23T08:43:07.215Z,101334.53
2022-09-23T08:45:36.830Z,101338.25
2022-09-23T08:48:12.799Z,101332.50
2022-09-23T08:50:43.795Z,101338.75
2022-09-23T08:53:19.297Z,101335.56
2022-09-23T08:55:49.148Z,101339.69
2022-09-23T08:58:35.184Z,101335.28
2022-09-23T09:01:13.324Z,101338.13
2022-09-23T09:03:45.439Z,101340.91
2022-09-23T09:06:17.948Z,101342.56
2022-09-23T09:08:51.371Z,101334.84
2022-09-23T09:11:20.401Z,101330.41
2022-09-23T09:13:57.118Z,101332.91
2022-09-23T09:16:58.803Z,101335.38
2022-09-23T09:19:38.815Z,101323.63
2022-09-23T09:22:13.785Z,101319.94
2022-09-23T09:24:40.551Z,101314.28
2022-09-23T09:27:11.920Z,101323.59
2022-09-23T09:29:43.515Z,101323.16
2022-09-23T09:32:18.795Z,101323.94
2022-09-23T09:34:54.129Z,101331.25
2022-09-23T09:37:31.436Z,101320.72
2022-09-23T09:39:58.355Z,101318.69
2022-09-23T09:42:30.819Z,101321.13
2022-09-23T09:45:01.770Z,101321.56
2022-09-23T09:47:40.558Z,101318.72
2022-09-23T09:50:10.336Z,101318.31
2022-09-23T09:52:38.437Z,101311.38
2022-09-23T09:55:25.389Z,101310.97
2022-09-23T09:57:58.403Z,101310.97
2022-09-23T10:00:38.994Z,101316.66
2022-09-23T10:03:23.046Z,101314.22
2022-09-23T10:05:52.295Z,101314.97
2022-09-23T10:08:26.910Z,101312.59
2022-09-23T10:11:00.902Z,101313.31
2022-09-23T10:13:30.186Z,101311.59
2022-09-23T10:15:58.278Z,101308.66
2022-09-23T10:18:30.415Z,101307.88
2022-09-23T10:21:05.747Z,101300.91
2022-09-23T10:23:38.431Z,101293.59
2022-09-23T10:26:10.386Z,101299.56
2022-09-23T10:28:50.559Z,101290.63
2022-09-23T10:31:26.690Z,101293.78
2022-09-23T10:33:55.577Z,101304.88
2022-09-23T10:36:22.373Z,101303.47
2022-09-23T10:38:55.371Z,101299.63
2022-09-23T10:41:50.286Z,101299.13
2022-09-23T10:44:52.338Z,101303.19
2022-09-23T10:47:32.021Z,101299.16
2022-09-23T10:50:14.589Z,101305.69
2022-09-23T10:52:49.120Z,101300.56
2022-09-23T10:55:29.353Z,101296.88
2022-09-23T10:58:14.180Z,101291.50
2022-09-23T11:00:47.546Z,101292.09
2022-09-23T11:03:39.450Z,101297.66
2022-09-23T11:06:15.743Z,101301.84
2022-09-23T11:09:10.380Z,101293.31
2022-09-23T11:11:48.660Z,101293.31
2022-09-23T11:14:44.762Z,101291.09
2022-09-23T11:17:41.942Z,101302.25
2022-09-23T11:20:26.275Z,101304.94
2022-09-23T11:23:20.191Z,101291.88
2022-09-23T11:25:54.753Z,101298.44
2022-09-23T11:28:51.309Z,101294.78
2022-09-23T11:31:31.495Z,101288.38
2022-09-23T11:34:14.241Z,101291.59
2022-09-23T11:36:46.646Z,101283.00
2022-09-23T11:39:18.511Z,101277.75
2022-09-23T11:41:46.892Z,101282.09
2022-09-23T11:44:21.378Z,101281.47
2022-09-23T11:46:54.580Z,101278.28
2022-09-23T11:49:29.049Z,101285.56
2022-09-23T11:52:06.184Z,101279.75
2022-09-23T11:54:40.683Z,101273.19
2022-09-23T11:57:20.955Z,101275.75
2022-09-23T11:59:55.546Z,101273.63
2022-09-23T12:02:30.519Z,101281.91
2022-09-23T12:05:02.967Z,101267.44
2022-09-23T12:07:43.516Z,101265.78
2022-09-23T12:10:11.887Z,101271.59
2022-09-23T12:12:48.136Z,101260.75
2022-09-23T12:15:31.033Z,101268.13
2022-09-23T12:18:29.136Z,101257.81
2022-09-23T12:21:18.160Z,101260.22
2022-09-23T12:24:19.149Z,101255.56
2022-09-23T12:26:53.289Z,101252.69
2022-09-23T12:29:20.664Z,101257.00
2022-09-23T12:31:50.088Z,101257.72
2022-09-23T12:34:23.391Z,101248.28
2022-09-23T12:36:50.344Z,101257.41
2022-09-23T12:39:22.824Z,101246.84
2022-09-23T12:41:57.245Z,101248.44
2022-09-23T12:44:31.783Z,101246.06
2022-09-23T12:47:36.766Z,101247.13
2022-09-23T12:50:51.172Z,101247.91
2022-09-23T12:53:53.527Z,101235.06
2022-09-23T12:56:23.656Z,101229.41
2022-09-23T12:59:21.537Z,101234.81
2022-09-23T13:01:48.697Z,101239.81
2022-09-23T13:05:03.182Z,101240.44
2022-09-23T13:07:34.158Z,101237.44
2022-09-23T13:10:09.086Z,101236.72
2022-09-23T13:12:39.458Z,101230.50
2022-09-23T13:15:16.662Z,101229.09
2022-09-23T13:17:43.594Z,101217.97
2022-09-23T13:20:38.490Z,101213.69
2022-09-23T13:23:20.166Z,101211.50
2022-09-23T13:25:48.415Z,101217.25
2022-09-23T13:28:26.316Z,101215.59
2022-09-23T13:30:53.764Z,101216.31
2022-09-23T13:33:28.563Z,101219.22
2022-09-23T13:36:04.820Z,101208.13
2022-09-23T13:38:33.433Z,101210.03
2022-09-23T13:41:04.700Z,101214.34
2022-09-23T13:43:40.951Z,101212.59
2022-09-23T13:46:12.613Z,101213.22
2022-09-23T13:48:40.203Z,101204.78
2022-09-23T13:51:10.971Z,101206.03
2022-09-23T13:53:38.123Z,101201.25
2022-09-23T13:56:07.418Z,101204.34
2022-09-23T13:58:35.621Z,101203.72
2022-09-23T14:01:03.394Z,101197.97
2022-09-23T14:03:36.624Z,101189.13
2022-09-23T14:06:07.681Z,101199.94
2022-09-23T14:08:38.337Z,101193.00
2022-09-23T14:11:06.359Z,101193.63
2022-09-23T14:13:40.432Z,101190.72
2022-09-23T14:16:11.403Z,101178.50
2022-09-23T14:18:40.842Z,101175.94
2022-09-23T14:21:26.507Z,101181.22
2022-09-23T14:23:54.866Z,101185.47
2022-09-23T14:26:23.778Z,101185.03
2022-09-23T14:28:50.827Z,101176.50
2022-09-23T14:31:17.811Z,101180.63
2022-09-23T14:33:44.628Z,101181.44
2022-09-23T14:36:33.352Z,101175.72
2022-09-23T14:39:07.389Z,101185.66
2022-09-23T14:41:35.924Z,101178.81
2022-09-23T14:44:03.334Z,101176.84
2022-09-23T14:46:33.378Z,101176.84
2022-09-23T14:49:08.422Z,101179.09
2022-09-23T14:51:45.085Z,101170.94
2022-09-23T14:54:44.167Z,101175.94
2022-09-23T14:57:27.239Z,101178.84
2022-09-23T14:59:59.120Z,101165.00
2022-09-23T15:02:32.596Z,101174.44
2022-09-23T15:05:15.666Z,101174.06
2022-09-23T15:07:44.394Z,101168.94
2022-09-23T15:10:20.022Z,101170.28
2022-09-23T15:12:49.048Z,101168.72
2022-09-23T15:15:17.349Z,101168.72
2022-09-23T15:17:44.998Z,101170.75
2022-09-23T15:20:19.904Z,101167.06
2022-09-23T15:22:48.586Z,101172.00
2022-09-23T15:25:20.697Z,101166.38
2022-09-23T15:28:17.392Z,101156.66
2022-09-23T15:30:44.623Z,101160.75
2022-09-23T15:33:12.921Z,101157.09
2022-09-23T15:35:45.372Z,101162.78
2022-09-23T15:38:12.605Z,101149.78
2022-09-23T15:40:41.420Z,101154.66
2022-09-23T15:43:20.763Z,101155.47
2022-09-23T15:45:53.231Z,101144.91
2022-09-23T15:48:22.716Z,101144.91
2022-09-23T15:50:50.533Z,101150.22
2022-09-23T15:53:20.718Z,101144.13
2022-09-23T15:55:52.962Z,101141.28
2022-09-23T15:58:20.569Z,101137.63
2022-09-23T16:00:52.231Z,101133.16
2022-09-23T16:03:25.569Z,101140.06
2022-09-23T16:05:52.425Z,101139.66
2022-09-23T16:08:24.102Z,101135.19
2022-09-23T16:10:53.608Z,101135.59
2022-09-23T16:13:20.938Z,101133.56
2022-09-23T16:15:47.800Z,101136.41
2022-09-23T16:18:14.672Z,101135.19
2022-09-23T16:20:44.537Z,101138.84
2022-09-23T16:23:34.306Z,101122.63
2022-09-23T16:26:06.116Z,101132.34
2022-09-23T16:28:33.004Z,101126.66
2022-09-23T16:30:59.953Z,101129.09
2022-09-23T16:33:27.871Z,101117.34
2022-09-23T16:35:55.210Z,101129.50
2022-09-23T16:38:21.962Z,101126.69
2022-09-23T16:40:48.901Z,101128.28
2022-09-23T16:43:17.510Z,101125.44
2022-09-23T16:45:45.996Z,101130.28
2022-09-23T16:48:12.773Z,101121.72
2022-09-23T16:50:40.336Z,101123.31
2022-09-23T16:53:07.207Z,101127.00
2022-09-23T16:55:34.208Z,101127.00
2022-09-23T16:58:01.075Z,101125.84
2022-09-23T17:00:47.944Z,101124.56
2022-09-23T17:03:33.359Z,101124.53
2022-09-23T17:06:03.422Z,101127.28
2022-09-23T17:08:33.330Z,101130.59
2022-09-23T17:11:00.921Z,101133.00
2022-09-23T17:13:29.675Z,101133.81
2022-09-23T17:15:58.012Z,101133.31
2022-09-23T17:18:25.345Z,101136.69
2022-09-23T17:21:00.506Z,101136.59
2022-09-23T17:23:28.537Z,101133.75
2022-09-23T17:25:55.352Z,101132.53
2022-09-23T17:28:22.262Z,101142.69
2022-09-23T17:30:51.536Z,101140.59
2022-09-23T17:33:22.428Z,101135.38
2022-09-23T17:35:49.511Z,101135.34
2022-09-23T17:38:16.247Z,101141.41
2022-09-23T17:40:50.131Z,101140.56
2022-09-23T17:43:21.352Z,101142.53
2022-09-23T17:45:49.981Z,101137.34
2022-09-23T17:48:20.271Z,101139.69
2022-09-23T17:50:55.869Z,101137.53
2022-09-23T17:53:23.120Z,101135.94
2022-09-23T17:55:57.980Z,101135.94
2022-09-23T17:58:26.096Z,101134.31
2022-09-23T18:00:52.969Z,101134.34
2022-09-23T18:03:19.886Z,101133.91
2022-09-23T18:05:46.728Z,101143.63
2022-09-23T18:08:14.878Z,101141.97
2022-09-23T18:10:41.803Z,101136.75
2022-09-23T18:13:08.573Z,101136.66
2022-09-23T18:15:36.778Z,101138.56
2022-09-23T18:18:03.912Z,101133.78
2022-09-23T18:20:31.227Z,101141.44
2022-09-23T18:22:58.050Z,101139.28
2022-09-23T18:25:39.325Z,101137.78
2022-09-23T18:28:06.850Z,101138.50
2022-09-23T18:30:33.691Z,101141.31
2022-09-23T18:33:01.640Z,101140.53
2022-09-23T18:35:28.531Z,101142.09
2022-09-23T18:37:56.062Z,101132.38
2022-09-23T18:40:22.986Z,101138.03
2022-09-23T18:42:51.422Z,101133.09
2022-09-23T18:45:18.256Z,101131.66
2022-09-23T18:48:03.414Z,101133.22
2022-09-23T18:50:44.024Z,101131.00
2022-09-23T18:53:11.235Z,101133.16
2022-09-23T18:55:40.652Z,101132.81
2022-09-23T18:58:10.461Z,101132.84
2022-09-23T19:00:37.313Z,101125.50
2022-09-23T19:03:04.835Z,101133.84
2022-09-23T19:05:34.193Z,101133.09
2022-09-23T19:08:01.470Z,101130.28
2022-09-23T19:10:28.313Z,101133.09
2022-09-23T19:12:55.070Z,101129.41
2022-09-23T19:15:23.312Z,101135.31
2022-09-23T19:17:50.098Z,101133.91
2022-09-23T19:20:16.884Z,101132.63
2022-09-23T19:22:47.261Z,101128.78
2022-09-23T19:25:14.302Z,101128.53
2022-09-23T19:27:41.295Z,101130.59
2022-09-23T19:30:09.951Z,101130.84
2022-09-23T19:32:40.424Z,101127.13
2022-09-23T19:35:07.880Z,101129.16
2022-09-23T19:37:34.668Z,101124.03
2022-09-23T19:40:01.904Z,101121.53
2022-09-23T19:42:30.096Z,101131.31
2022-09-23T19:44:56.945Z,101130.94
2022-09-23T19:47:24.590Z,101122.44
2022-09-23T19:49:52.721Z,101129.88
2022-09-23T19:52:19.572Z,101124.09
2022-09-23T19:54:48.788Z,101124.13
2022-09-23T19:57:16.186Z,101127.00
2022-09-23T19:59:43.018Z,101123.75
2022-09-23T20:02:12.026Z,101130.59
2022-09-23T20:04:38.865Z,101115.69
2022-09-23T20:07:09.064Z,101117.56
2022-09-23T20:09:35.929Z,101104.88
2022-09-23T20:12:03.124Z,101110.56
2022-09-23T20:14:31.245Z,101107.22
2022-09-23T20:17:00.122Z,101103.88
2022-09-23T20:19:26.910Z,101108.72
2022-09-23T20:22:13.894Z,101113.22
2022-09-23T20:24:42.102Z,101112.50
2022-09-23T20:27:08.965Z,101110.06
2022-09-23T20:29:35.984Z,101109.22
2022-09-23T20:32:03.321Z,101109.16
2022-09-23T20:34:32.111Z,101105.13
2022-09-23T20:36:59.307Z,101105.41
2022-09-23T20:39:26.124Z,101095.75
2022-09-23T20:41:54.849Z,101093.66
2022-09-23T20:44:21.746Z,101096.91
2022-09-23T20:46:49.520Z,101089.28
2022-09-23T20:49:17.194Z,101085.38
2022-09-23T20:51:44.477Z,101086.16
2022-09-23T20:54:12.297Z,101086.84
2022-09-23T20:56:39.213Z,101088.41
2022-09-23T20:59:07.325Z,101085.28
2022-09-23T21:01:35.228Z,101078.22
2022-09-23T21:04:04.969Z,101082.34
2022-09-23T21:06:33.783Z,101072.53
2022-09-23T21:09:00.888Z,101071.88
2022-09-23T21:11:29.157Z,101077.66
2022-09-23T21:13:56.570Z,101063.03
2022-09-23T21:16:25.797Z,101055.81
2022-09-23T21:18:52.795Z,101058.91
2022-09-23T21:21:22.069Z,101067.63
2022-09-23T21:23:50.112Z,101078.63
2022-09-23T21:26:19.339Z,101070.50
2022-09-23T21:28:48.452Z,101068.09
2022-09-23T21:31:22.897Z,101069.84
2022-09-23T21:33:54.153Z,101054.50
2022-09-23T21:36:23.373Z,101057.19
2022-09-23T21:38:51.014Z,101050.91
2022-09-23T21:41:17.896Z,101059.91
2022-09-23T21:43:45.576Z,101053.88
2022-09-23T21:46:14.842Z,101051.69
2022-09-23T21:48:42.556Z,101050.59
2022-09-23T21:51:14.175Z,101054.81
2022-09-23T21:53:42.353Z,101046.44
2022-09-23T21:56:14.030Z,101036.84
2022-09-23T21:58:43.912Z,101047.53
2022-09-23T22:01:13.298Z,101047.59
2022-09-23T22:03:40.451Z,101047.28
2022-09-23T22:06:10.954Z,101050.59
2022-09-23T22:08:40.035Z,101057.22
2022-09-23T22:11:08.979Z,101052.13
2022-09-23T22:13:35.790Z,101050.91
2022-09-23T22:16:05.213Z,101044.50
2022-09-23T22:18:32.307Z,101043.78
2022-09-23T22:20:59.212Z,101039.53
2022-09-23T22:23:27.416Z,101036.88
2022-09-23T22:26:02.795Z,101029.91
2022-09-23T22:28:50.731Z,101038.94
2022-09-23T22:31:36.320Z,101036.00
2022-09-23T22:34:03.131Z,101029.00
2022-09-23T22:36:29.908Z,101026.75
2022-09-23T22:39:00.646Z,101026.22
2022-09-23T22:41:27.417Z,101026.25
2022-09-23T22:43:54.169Z,101027.53
2022-09-23T22:46:23.672Z,101022.19
2022-09-23T22:48:53.225Z,101026.41
2022-09-23T22:51:21.557Z,101028.91
2022-09-23T22:53:48.659Z,101023.22
2022-09-23T22:56:16.857Z,101019.06
2022-09-23T22:58:43.820Z,101022.81
2022-09-23T23:01:11.830Z,101027.06
2022-09-23T23:03:40.317Z,101025.81
2022-09-23T23:06:09.378Z,101016.63
2022-09-23T23:08:37.284Z,101023.59
2022-09-23T23:11:06.026Z,101015.97
2022-09-23T23:13:34.326Z,101012.75
2022-09-23T23:16:04.976Z,101015.06
2022-09-23T23:18:33.111Z,101018.41
2022-09-23T23:21:07.737Z,101013.88
2022-09-23T23:23:37.500Z,101011.91
2022-09-23T23:26:09.953Z,101009.88
2022-09-23T23:28:38.750Z,101013.13
2022-09-23T23:31:06.603Z,100995.88
2022-09-23T23:33:33.647Z,100999.66
2022-09-23T23:36:00.801Z,101004.19
2022-09-23T23:38:27.716Z,101006.25
2022-09-23T23:40:55.522Z,101000.94
2022-09-23T23:43:23.607Z,100999.28
2022-09-23T23:45:52.225Z,101004.53
2022-09-23T23:48:19.731Z,100991.50
2022-09-23T23:50:52.813Z,101000.81
2022-09-23T23:53:19.665Z,100994.84
2022-09-23T23:55:49.484Z,100985.84
2022-09-23T23:58:18.038Z,100987.69
